createdAt,value
2022-08-16T00:00:04.351Z,90.72
2022-08-16T00:01:01.547Z,90.82
2022-08-16T00:02:01.400Z,91.22
2022-08-16T00:03:01.357Z,91.02
2022-08-16T00:04:01.509Z,90.92
2022-08-16T00:05:01.471Z,91.52
2022-08-16T00:06:01.301Z,91.22
2022-08-16T00:07:01.547Z,91.13
2022-08-16T00:08:01.503Z,91.63
2022-08-16T00:09:01.260Z,91.99
2022-08-16T00:10:01.344Z,91.88
2022-08-16T00:11:01.464Z,92.38
2022-08-16T00:12:01.184Z,91.99
2022-08-16T00:13:01.662Z,91.88
2022-08-16T00:14:01.262Z,91.88
2022-08-16T00:15:01.263Z,91.88
2022-08-16T00:16:01.263Z,92.29
2022-08-16T00:17:16.357Z,91.88
2022-08-16T00:18:01.142Z,91.83
2022-08-16T00:19:01.226Z,91.72
2022-08-16T00:20:01.159Z,91.63
2022-08-16T00:21:01.182Z,92.13
2022-08-16T00:22:03.073Z,92.13
2022-08-16T00:23:01.192Z,92.03
2022-08-16T00:24:04.964Z,91.63
2022-08-16T00:25:01.501Z,91.93
2022-08-16T00:26:34.858Z,91.52
2022-08-16T00:27:01.081Z,92.03
2022-08-16T00:28:01.262Z,91.63
2022-08-16T00:29:01.073Z,92.23
2022-08-16T00:30:09.369Z,91.93
2022-08-16T00:31:01.162Z,90.22
2022-08-16T00:32:05.762Z,90.82
2022-08-16T00:33:01.034Z,91.52
2022-08-16T00:34:01.226Z,91.52
2022-08-16T00:35:01.740Z,91.48
2022-08-16T00:36:01.018Z,91.38
2022-08-16T00:37:03.539Z,91.28
2022-08-16T00:38:00.982Z,91.48
2022-08-16T00:39:00.981Z,91.38
2022-08-16T00:40:01.012Z,91.58
2022-08-16T00:41:00.983Z,91.58
2022-08-16T00:42:00.917Z,91.48
2022-08-16T00:43:01.152Z,91.08
2022-08-16T00:44:00.861Z,91.48
2022-08-16T00:45:00.989Z,91.18
2022-08-16T00:46:01.083Z,90.98
2022-08-16T00:47:06.113Z,90.88
2022-08-16T00:48:01.064Z,90.58
2022-08-16T00:49:01.033Z,90.48
2022-08-16T00:50:00.822Z,90.58
2022-08-16T00:51:01.026Z,91.18
2022-08-16T00:52:00.903Z,90.68
2022-08-16T00:53:00.862Z,90.68
2022-08-16T00:54:00.782Z,89.17
2022-08-16T00:55:00.927Z,88.77
2022-08-16T00:56:00.782Z,87.06
2022-08-16T00:57:00.785Z,88.07
2022-08-16T00:58:01.017Z,88.17
2022-08-16T00:59:01.316Z,88.67
2022-08-16T01:00:01.122Z,88.43
2022-08-16T01:01:00.825Z,88.02
2022-08-16T01:02:00.936Z,88.43
2022-08-16T01:03:01.000Z,89.23
2022-08-16T01:04:00.702Z,87.82
2022-08-16T01:05:10.383Z,86.52
2022-08-16T01:06:00.740Z,85.31
2022-08-16T01:07:01.714Z,85.52
2022-08-16T01:08:00.927Z,86.08
2022-08-16T01:09:00.648Z,85.78
2022-08-16T01:10:00.605Z,85.97
2022-08-16T01:11:02.436Z,86.38
2022-08-16T01:12:00.693Z,86.78
2022-08-16T01:13:00.734Z,87.78
2022-08-16T01:14:00.565Z,87.68
2022-08-16T01:15:00.642Z,85.17
2022-08-16T01:16:00.723Z,86.08
2022-08-16T01:17:00.868Z,85.88
2022-08-16T01:18:00.564Z,86.48
2022-08-16T01:19:00.564Z,85.58
2022-08-16T01:20:00.686Z,86.18
2022-08-16T01:21:00.622Z,85.78
2022-08-16T01:22:49.397Z,84.97
2022-08-16T01:23:00.688Z,85.47
2022-08-16T01:24:01.370Z,85.44
2022-08-16T01:25:00.485Z,85.74
2022-08-16T01:26:34.686Z,85.94
2022-08-16T01:27:03.696Z,86.14
2022-08-16T01:28:00.645Z,86.44
2022-08-16T01:29:00.524Z,85.03
2022-08-16T01:30:00.440Z,85.33
2022-08-16T01:31:00.452Z,86.04
2022-08-16T01:32:00.532Z,86.64
2022-08-16T01:33:02.478Z,85.24
2022-08-16T01:34:00.410Z,85.83
2022-08-16T01:35:00.524Z,86.14
2022-08-16T01:36:00.445Z,86.04
2022-08-16T01:37:00.403Z,84.53
2022-08-16T01:38:00.325Z,84.74
2022-08-16T01:39:00.330Z,84.23
2022-08-16T01:40:00.462Z,84.03
2022-08-16T01:41:02.046Z,84.43
2022-08-16T01:42:00.284Z,85.94
2022-08-16T01:43:00.349Z,85.94
2022-08-16T01:44:01.319Z,84.74
2022-08-16T01:45:00.285Z,86.14
2022-08-16T01:46:00.413Z,86.64
2022-08-16T01:47:00.291Z,86.64
2022-08-16T01:48:00.253Z,86.24
2022-08-16T01:49:00.850Z,86.84
2022-08-16T01:50:41.732Z,87.08
2022-08-16T01:51:08.981Z,86.98
2022-08-16T01:52:00.323Z,87.38
2022-08-16T01:53:00.207Z,86.48
2022-08-16T01:54:00.214Z,86.68
2022-08-16T01:55:00.253Z,85.88
2022-08-16T01:56:00.221Z,84.67
2022-08-16T01:57:00.205Z,85.17
2022-08-16T01:58:00.181Z,85.97
2022-08-16T01:59:00.175Z,86.48
2022-08-16T02:00:00.200Z,86.18
2022-08-16T02:01:00.253Z,86.08
2022-08-16T02:02:00.602Z,84.67
2022-08-16T02:03:00.090Z,85.08
2022-08-16T02:04:11.161Z,86.18
2022-08-16T02:05:00.184Z,86.08
2022-08-16T02:06:00.212Z,85.47
2022-08-16T02:07:00.204Z,84.67
2022-08-16T02:08:00.111Z,85.08
2022-08-16T02:09:00.046Z,84.47
2022-08-16T02:10:02.042Z,84.27
2022-08-16T02:11:00.036Z,84.57
2022-08-16T02:12:00.013Z,85.27
2022-08-16T02:13:00.998Z,84.77
2022-08-16T02:14:00.049Z,84.77
2022-08-16T02:15:00.001Z,85.47
2022-08-16T02:16:00.014Z,84.47
2022-08-16T02:17:00.120Z,84.57
2022-08-16T02:18:01.101Z,84.57
2022-08-16T02:19:00.006Z,84.37
2022-08-16T02:20:00.826Z,84.27
2022-08-16T02:20:59.964Z,85.58
2022-08-16T02:22:09.079Z,85.38
2022-08-16T02:22:59.883Z,84.47
2022-08-16T02:23:59.916Z,84.27
2022-08-16T02:24:59.884Z,83.97
2022-08-16T02:26:00.026Z,84.77
2022-08-16T02:26:59.900Z,84.88
2022-08-16T02:27:59.843Z,85.17
2022-08-16T02:28:59.814Z,85.08
2022-08-16T02:30:05.009Z,85.27
2022-08-16T02:30:59.852Z,85.08
2022-08-16T02:32:03.200Z,84.61
2022-08-16T02:32:59.814Z,84.91
2022-08-16T02:33:59.765Z,85.92
2022-08-16T02:34:59.841Z,85.11
2022-08-16T02:36:00.127Z,85.11
2022-08-16T02:36:59.844Z,85.41
2022-08-16T02:38:01.827Z,84.81
2022-08-16T02:38:59.809Z,85.02
2022-08-16T02:39:59.893Z,86.32
2022-08-16T02:40:59.899Z,85.82
2022-08-16T02:41:59.726Z,85.82
2022-08-16T02:42:59.773Z,85.72
2022-08-16T02:43:59.925Z,85.72
2022-08-16T02:44:59.765Z,86.22
2022-08-16T02:45:59.695Z,86.12
2022-08-16T02:46:59.705Z,85.96
2022-08-16T02:48:01.855Z,86.16
2022-08-16T02:49:00.366Z,85.66
2022-08-16T02:50:55.226Z,86.26
2022-08-16T02:51:11.913Z,86.96
2022-08-16T02:51:59.628Z,86.26
2022-08-16T02:52:59.656Z,86.76
2022-08-16T02:53:59.586Z,86.66
2022-08-16T02:54:59.908Z,86.46
2022-08-16T02:56:00.419Z,86.46
2022-08-16T02:56:59.640Z,86.46
2022-08-16T02:57:59.585Z,86.70
2022-08-16T02:58:59.507Z,86.60
2022-08-16T02:59:59.552Z,87.01
2022-08-16T03:00:59.667Z,87.51
2022-08-16T03:01:59.667Z,87.51
2022-08-16T03:02:59.514Z,86.80
2022-08-16T03:04:46.384Z,86.70
2022-08-16T03:04:59.505Z,87.81
2022-08-16T03:05:59.504Z,88.01
2022-08-16T03:06:59.545Z,88.11
2022-08-16T03:07:59.465Z,87.71
2022-08-16T03:08:59.993Z,88.01
2022-08-16T03:10:00.241Z,88.21
2022-08-16T03:10:59.509Z,88.31
2022-08-16T03:12:00.828Z,87.45
2022-08-16T03:12:59.733Z,88.05
2022-08-16T03:13:59.498Z,88.55
2022-08-16T03:14:59.391Z,88.15
2022-08-16T03:15:59.389Z,89.06
2022-08-16T03:17:00.962Z,89.15
2022-08-16T03:17:59.384Z,89.15
2022-08-16T03:18:59.434Z,88.55
2022-08-16T03:20:00.230Z,89.06
2022-08-16T03:20:59.318Z,89.06
2022-08-16T03:21:59.354Z,89.20
2022-08-16T03:22:59.345Z,89.10
2022-08-16T03:23:59.305Z,89.40
2022-08-16T03:25:01.038Z,89.70
2022-08-16T03:25:59.345Z,89.70
2022-08-16T03:26:59.224Z,89.60
2022-08-16T03:27:59.858Z,89.30
2022-08-16T03:28:59.273Z,89.60
2022-08-16T03:29:59.310Z,89.60
2022-08-16T03:30:59.301Z,89.90
2022-08-16T03:31:59.655Z,89.80
2022-08-16T03:32:59.235Z,89.60
2022-08-16T03:33:59.225Z,89.60
2022-08-16T03:34:59.239Z,90.11
2022-08-16T03:35:59.218Z,90.55
2022-08-16T03:36:59.226Z,90.25
2022-08-16T03:38:02.818Z,90.05
2022-08-16T03:38:59.153Z,90.05
2022-08-16T03:40:02.646Z,89.84
2022-08-16T03:40:59.151Z,90.25
2022-08-16T03:41:59.711Z,90.34
2022-08-16T03:43:19.343Z,90.45
2022-08-16T03:43:59.151Z,90.75
2022-08-16T03:45:02.860Z,90.85
2022-08-16T03:45:59.032Z,90.85
2022-08-16T03:46:59.073Z,90.65
2022-08-16T03:47:59.930Z,90.55
2022-08-16T03:48:59.144Z,90.65
2022-08-16T03:49:59.027Z,91.05
2022-08-16T03:51:00.087Z,91.25
2022-08-16T03:51:59.066Z,91.09
2022-08-16T03:53:03.148Z,90.99
2022-08-16T03:54:01.482Z,91.30
2022-08-16T03:54:59.572Z,91.19
2022-08-16T03:55:58.986Z,91.39
2022-08-16T03:56:59.102Z,91.09
2022-08-16T03:57:58.944Z,91.39
2022-08-16T03:58:58.953Z,91.60
2022-08-16T03:59:58.948Z,90.99
2022-08-16T04:00:59.664Z,90.99
2022-08-16T04:01:58.915Z,91.14
2022-08-16T04:02:58.905Z,91.30
2022-08-16T04:03:58.866Z,92.20
2022-08-16T04:04:58.885Z,92.40
2022-08-16T04:05:58.902Z,92.30
2022-08-16T04:06:58.846Z,91.74
2022-08-16T04:07:58.826Z,91.14
2022-08-16T04:08:58.878Z,91.04
2022-08-16T04:09:58.864Z,91.64
2022-08-16T04:10:58.824Z,91.74
2022-08-16T04:11:58.905Z,91.54
2022-08-16T04:13:04.633Z,91.85
2022-08-16T04:14:32.329Z,91.74
2022-08-16T04:14:58.784Z,92.05
2022-08-16T04:15:58.793Z,92.05
2022-08-16T04:16:58.747Z,91.64
2022-08-16T04:17:58.826Z,92.45
2022-08-16T04:19:02.119Z,92.25
2022-08-16T04:19:59.924Z,92.14
2022-08-16T04:20:58.745Z,92.14
2022-08-16T04:22:00.790Z,92.95
2022-08-16T04:22:58.745Z,91.89
2022-08-16T04:23:58.745Z,91.69
2022-08-16T04:24:59.274Z,92.39
2022-08-16T04:26:02.148Z,92.39
2022-08-16T04:26:58.709Z,92.99
2022-08-16T04:27:58.704Z,93.05
2022-08-16T04:29:17.212Z,92.95
2022-08-16T04:30:03.112Z,92.45
2022-08-16T04:30:58.665Z,92.14
2022-08-16T04:31:58.634Z,92.14
2022-08-16T04:32:58.590Z,91.94
2022-08-16T04:33:58.585Z,91.94
2022-08-16T04:35:03.414Z,92.35
2022-08-16T04:35:58.635Z,91.44
2022-08-16T04:36:58.556Z,91.64
2022-08-16T04:37:58.558Z,91.74
2022-08-16T04:38:58.587Z,91.94
2022-08-16T04:39:58.623Z,91.85
2022-08-16T04:40:58.553Z,91.94
2022-08-16T04:41:58.555Z,92.35
2022-08-16T04:42:58.548Z,92.55
2022-08-16T04:43:58.508Z,92.65
2022-08-16T04:44:58.656Z,92.35
2022-08-16T04:46:00.573Z,92.14
2022-08-16T04:47:02.419Z,91.85
2022-08-16T04:47:58.504Z,92.05
2022-08-16T04:48:58.465Z,92.35
2022-08-16T04:49:58.430Z,91.34
2022-08-16T04:50:58.426Z,91.44
2022-08-16T04:51:58.475Z,91.04
2022-08-16T04:52:59.119Z,90.84
2022-08-16T04:53:58.474Z,91.34
2022-08-16T04:54:58.427Z,91.34
2022-08-16T04:55:58.385Z,91.34
2022-08-16T04:56:58.387Z,91.39
2022-08-16T04:57:58.346Z,91.50
2022-08-16T04:58:58.396Z,90.29
2022-08-16T04:59:58.345Z,90.59
2022-08-16T05:00:58.312Z,90.59
2022-08-16T05:01:59.577Z,90.49
2022-08-16T05:02:58.875Z,90.29
2022-08-16T05:04:00.407Z,90.29
2022-08-16T05:04:58.272Z,90.19
2022-08-16T05:05:59.688Z,90.39
2022-08-16T05:06:58.266Z,89.99
2022-08-16T05:08:00.240Z,90.09
2022-08-16T05:08:58.226Z,89.69
2022-08-16T05:09:58.226Z,89.95
2022-08-16T05:10:58.813Z,89.75
2022-08-16T05:11:58.232Z,89.14
2022-08-16T05:12:58.186Z,89.54
2022-08-16T05:14:06.968Z,89.84
2022-08-16T05:15:02.700Z,89.14
2022-08-16T05:15:58.146Z,89.44
2022-08-16T05:16:58.144Z,89.64
2022-08-16T05:17:59.136Z,90.05
2022-08-16T05:18:58.459Z,89.04
2022-08-16T05:19:58.653Z,89.14
2022-08-16T05:21:06.527Z,89.30
2022-08-16T05:21:58.105Z,88.70
2022-08-16T05:22:58.066Z,88.70
2022-08-16T05:23:58.553Z,88.90
2022-08-16T05:24:58.071Z,89.20
2022-08-16T05:25:58.066Z,89.20
2022-08-16T05:26:58.069Z,88.70
2022-08-16T05:27:58.066Z,88.70
2022-08-16T05:28:58.073Z,89.10
2022-08-16T05:30:00.083Z,89.10
2022-08-16T05:30:58.066Z,89.10
2022-08-16T05:31:58.044Z,89.10
2022-08-16T05:32:57.995Z,89.90
2022-08-16T05:33:57.985Z,89.30
2022-08-16T05:34:58.025Z,88.39
2022-08-16T05:35:57.993Z,89.90
2022-08-16T05:36:58.742Z,89.40
2022-08-16T05:37:57.948Z,88.70
2022-08-16T05:38:57.908Z,89.10
2022-08-16T05:39:57.978Z,88.95
2022-08-16T05:40:59.936Z,89.26
2022-08-16T05:41:57.951Z,89.06
2022-08-16T05:42:57.870Z,89.06
2022-08-16T05:43:59.159Z,88.15
2022-08-16T05:44:57.871Z,88.55
2022-08-16T05:45:57.866Z,88.75
2022-08-16T05:47:00.247Z,88.45
2022-08-16T05:48:00.389Z,87.85
2022-08-16T05:49:03.713Z,87.55
2022-08-16T05:49:57.834Z,87.15
2022-08-16T05:50:57.825Z,87.51
2022-08-16T05:51:57.898Z,87.51
2022-08-16T05:52:57.829Z,87.81
2022-08-16T05:53:57.871Z,87.91
2022-08-16T05:55:00.905Z,87.51
2022-08-16T05:55:57.755Z,88.11
2022-08-16T05:56:57.785Z,87.91
2022-08-16T05:57:57.756Z,86.70
2022-08-16T05:58:57.788Z,87.21
2022-08-16T05:59:59.759Z,87.41
2022-08-16T06:00:57.707Z,86.80
2022-08-16T06:01:57.813Z,86.70
2022-08-16T06:02:57.706Z,86.40
2022-08-16T06:03:57.668Z,86.60
2022-08-16T06:04:57.676Z,86.36
2022-08-16T06:06:00.636Z,87.57
2022-08-16T06:06:57.858Z,87.16
2022-08-16T06:07:59.091Z,87.16
2022-08-16T06:08:57.685Z,87.16
2022-08-16T06:09:57.637Z,87.16
2022-08-16T06:11:10.076Z,86.76
2022-08-16T06:11:58.076Z,86.26
2022-08-16T06:12:57.625Z,85.36
2022-08-16T06:13:57.630Z,85.75
2022-08-16T06:14:57.591Z,86.26
2022-08-16T06:15:57.548Z,86.82
2022-08-16T06:16:57.558Z,86.62
2022-08-16T06:17:57.644Z,86.62
2022-08-16T06:18:57.551Z,85.92
2022-08-16T06:19:57.549Z,86.02
2022-08-16T06:20:57.507Z,86.12
2022-08-16T06:21:57.539Z,84.91
2022-08-16T06:23:03.369Z,85.92
2022-08-16T06:23:57.553Z,85.41
2022-08-16T06:24:57.515Z,85.82
2022-08-16T06:25:57.501Z,85.47
2022-08-16T06:26:58.472Z,84.67
2022-08-16T06:27:58.312Z,84.47
2022-08-16T06:28:57.538Z,84.88
2022-08-16T06:29:57.580Z,83.77
2022-08-16T06:30:57.449Z,84.17
2022-08-16T06:31:57.608Z,83.53
2022-08-16T06:32:57.448Z,84.83
2022-08-16T06:33:57.404Z,83.63
2022-08-16T06:35:02.726Z,84.13
2022-08-16T06:35:59.327Z,84.74
2022-08-16T06:36:59.296Z,84.83
2022-08-16T06:37:57.415Z,84.33
2022-08-16T06:38:57.609Z,84.89
2022-08-16T06:39:57.395Z,82.79
2022-08-16T06:40:57.528Z,84.39
2022-08-16T06:41:57.406Z,84.09
2022-08-16T06:42:57.806Z,83.09
2022-08-16T06:43:57.329Z,83.79
2022-08-16T06:44:57.295Z,83.49
2022-08-16T06:45:57.528Z,83.39
2022-08-16T06:46:57.296Z,83.19
2022-08-16T06:47:57.336Z,83.69
2022-08-16T06:48:57.247Z,82.75
2022-08-16T06:49:57.288Z,81.85
2022-08-16T06:50:57.248Z,82.35
2022-08-16T06:52:03.290Z,82.35
2022-08-16T06:53:01.099Z,81.95
2022-08-16T06:53:57.288Z,82.65
2022-08-16T06:54:57.220Z,82.91
2022-08-16T06:55:57.108Z,82.41
2022-08-16T06:56:57.106Z,81.30
2022-08-16T06:57:57.147Z,82.61
2022-08-16T06:58:57.106Z,81.91
2022-08-16T06:59:58.580Z,82.31
2022-08-16T07:00:58.111Z,80.80
2022-08-16T07:01:58.531Z,80.51
2022-08-16T07:02:57.317Z,81.61
2022-08-16T07:03:57.408Z,82.67
2022-08-16T07:04:57.069Z,82.77
2022-08-16T07:05:57.130Z,82.97
2022-08-16T07:06:57.030Z,82.17
2022-08-16T07:07:57.027Z,80.07
2022-08-16T07:08:57.028Z,81.57
2022-08-16T07:09:57.029Z,81.07
2022-08-16T07:10:56.996Z,81.07
2022-08-16T07:11:56.989Z,82.17
2022-08-16T07:13:04.075Z,82.47
2022-08-16T07:14:00.233Z,82.67
2022-08-16T07:15:00.743Z,83.43
2022-08-16T07:15:57.071Z,83.33
2022-08-16T07:16:58.184Z,83.13
2022-08-16T07:17:57.036Z,80.93
2022-08-16T07:18:58.191Z,80.13
2022-08-16T07:20:29.389Z,80.73
2022-08-16T07:21:01.635Z,79.73
2022-08-16T07:21:59.246Z,79.29
2022-08-16T07:22:58.701Z,79.89
2022-08-16T07:23:58.070Z,79.49
2022-08-16T07:24:56.876Z,79.69
2022-08-16T07:25:56.869Z,78.25
2022-08-16T07:26:56.870Z,78.85
2022-08-16T07:27:56.829Z,78.25
2022-08-16T07:28:56.885Z,79.25
2022-08-16T07:29:56.965Z,79.25
2022-08-16T07:30:56.835Z,79.32
2022-08-16T07:31:56.827Z,79.82
2022-08-16T07:32:56.795Z,79.02
2022-08-16T07:33:56.786Z,79.11
2022-08-16T07:34:56.793Z,77.51
2022-08-16T07:35:56.829Z,78.42
2022-08-16T07:36:57.973Z,77.98
2022-08-16T07:37:56.713Z,78.48
2022-08-16T07:38:56.718Z,76.78
2022-08-16T07:39:56.769Z,77.88
2022-08-16T07:41:01.295Z,75.89
2022-08-16T07:41:56.748Z,77.44
2022-08-16T07:42:56.637Z,77.74
2022-08-16T07:43:56.722Z,76.45
2022-08-16T07:44:57.046Z,76.45
2022-08-16T07:45:56.668Z,76.84
2022-08-16T07:46:56.686Z,78.11
2022-08-16T07:47:56.668Z,76.81
2022-08-16T07:49:02.400Z,75.91
2022-08-16T07:49:58.150Z,75.91
2022-08-16T07:50:59.600Z,75.51
2022-08-16T07:51:56.594Z,76.31
2022-08-16T07:52:56.550Z,75.01
2022-08-16T07:54:02.719Z,76.27
2022-08-16T07:54:56.537Z,76.67
2022-08-16T07:55:56.869Z,78.77
2022-08-16T07:56:56.623Z,77.27
2022-08-16T07:57:59.853Z,76.07
2022-08-16T07:58:57.926Z,77.07
2022-08-16T07:59:57.238Z,76.93
2022-08-16T08:00:56.514Z,75.24
2022-08-16T08:01:56.657Z,77.83
2022-08-16T08:02:57.059Z,75.24
2022-08-16T08:03:56.533Z,76.54
2022-08-16T08:04:56.576Z,75.50
2022-08-16T08:05:56.811Z,75.20
2022-08-16T08:06:56.605Z,74.80
2022-08-16T08:07:57.633Z,75.20
2022-08-16T08:08:57.620Z,74.01
2022-08-16T08:09:56.737Z,74.71
2022-08-16T08:10:56.427Z,72.81
2022-08-16T08:12:00.899Z,74.37
2022-08-16T08:12:56.662Z,75.76
2022-08-16T08:13:56.604Z,74.47
2022-08-16T08:14:56.498Z,72.98
2022-08-16T08:15:56.417Z,73.18
2022-08-16T08:16:56.423Z,72.88
2022-08-16T08:17:56.579Z,74.54
2022-08-16T08:19:01.205Z,73.84
2022-08-16T08:19:56.376Z,73.44
2022-08-16T08:20:59.220Z,73.04
2022-08-16T08:21:59.559Z,72.94
2022-08-16T08:23:01.059Z,73.54
2022-08-16T08:23:56.466Z,73.14
2022-08-16T08:24:59.172Z,73.11
2022-08-16T08:25:56.299Z,73.80
2022-08-16T08:26:56.257Z,75.10
2022-08-16T08:27:57.613Z,74.37
2022-08-16T08:29:01.055Z,74.07
2022-08-16T08:30:49.610Z,69.49
2022-08-16T08:31:02.939Z,70.59
2022-08-16T08:31:56.176Z,69.69
2022-08-16T08:32:59.903Z,71.75
2022-08-16T08:33:56.178Z,69.56
2022-08-16T08:34:56.341Z,71.34
2022-08-16T08:35:56.299Z,70.06
2022-08-16T08:36:56.305Z,71.55
2022-08-16T08:37:56.680Z,72.80
2022-08-16T08:38:56.133Z,70.42
2022-08-16T08:39:56.167Z,70.52
2022-08-16T08:40:56.320Z,68.53
2022-08-16T08:41:56.162Z,68.83
2022-08-16T08:42:57.860Z,68.63
2022-08-16T08:43:56.126Z,69.23
2022-08-16T08:44:56.077Z,71.88
2022-08-16T08:45:56.067Z,70.68
2022-08-16T08:47:00.430Z,69.99
2022-08-16T08:47:58.586Z,71.18
2022-08-16T08:49:02.159Z,70.18
2022-08-16T08:49:56.056Z,66.11
2022-08-16T08:50:56.046Z,67.87
2022-08-16T08:51:56.038Z,67.97
2022-08-16T08:52:56.027Z,68.37
2022-08-16T08:53:57.735Z,70.25
2022-08-16T08:54:56.019Z,66.58
2022-08-16T08:55:59.041Z,65.69
2022-08-16T08:56:55.947Z,68.43
2022-08-16T08:57:55.987Z,65.75
2022-08-16T08:58:58.881Z,68.73
2022-08-16T08:59:55.945Z,67.64
2022-08-16T09:00:55.884Z,68.53
2022-08-16T09:01:56.509Z,68.83
2022-08-16T09:02:56.075Z,65.86
2022-08-16T09:03:55.936Z,67.41
2022-08-16T09:04:55.856Z,68.80
2022-08-16T09:05:55.903Z,66.91
2022-08-16T09:06:55.842Z,68.70
2022-08-16T09:08:01.678Z,66.49
2022-08-16T09:08:55.844Z,67.57
2022-08-16T09:10:06.465Z,64.01
2022-08-16T09:10:58.858Z,63.71
2022-08-16T09:12:06.462Z,68.76
2022-08-16T09:12:56.260Z,67.77
2022-08-16T09:13:55.742Z,66.39
2022-08-16T09:14:55.970Z,66.19
2022-08-16T09:15:55.862Z,66.06
2022-08-16T09:17:02.669Z,65.56
2022-08-16T09:17:56.163Z,64.57
2022-08-16T09:19:00.784Z,66.22
2022-08-16T09:19:57.164Z,67.11
2022-08-16T09:20:59.893Z,63.62
2022-08-16T09:21:56.282Z,61.15
2022-08-16T09:22:55.759Z,62.53
2022-08-16T09:23:55.763Z,61.64
2022-08-16T09:25:07.796Z,62.30
2022-08-16T09:25:56.120Z,64.67
2022-08-16T09:26:55.741Z,63.75
2022-08-16T09:27:56.763Z,62.87
2022-08-16T09:29:16.992Z,61.65
2022-08-16T09:30:00.295Z,64.09
2022-08-16T09:30:55.673Z,58.46
2022-08-16T09:31:55.874Z,59.97
2022-08-16T09:32:55.604Z,60.73
2022-08-16T09:33:55.567Z,60.73
2022-08-16T09:34:58.266Z,62.81
2022-08-16T09:35:55.644Z,62.28
2022-08-16T09:36:55.563Z,62.05
2022-08-16T09:38:00.678Z,60.28
2022-08-16T09:38:59.865Z,62.65
2022-08-16T09:39:55.624Z,58.47
2022-08-16T09:40:55.497Z,56.50
2022-08-16T09:41:55.467Z,56.99
2022-08-16T09:42:56.553Z,55.35
2022-08-16T09:43:59.387Z,58.28
2022-08-16T09:45:11.069Z,58.40
2022-08-16T09:45:55.462Z,56.63
2022-08-16T09:46:57.754Z,60.28
2022-08-16T09:47:57.605Z,61.43
2022-08-16T09:48:56.481Z,60.52
2022-08-16T09:49:55.461Z,59.99
2022-08-16T09:50:56.318Z,58.00
2022-08-16T09:51:57.277Z,57.60
2022-08-16T09:52:55.365Z,54.64
2022-08-16T09:53:55.483Z,53.56
2022-08-16T09:54:55.494Z,53.54
2022-08-16T09:55:56.871Z,53.83
2022-08-16T09:56:55.415Z,56.66
2022-08-16T09:57:55.335Z,58.99
2022-08-16T09:59:04.950Z,55.45
2022-08-16T09:59:56.443Z,52.18
2022-08-16T10:00:55.316Z,57.20
2022-08-16T10:01:55.678Z,56.18
2022-08-16T10:02:55.496Z,53.70
2022-08-16T10:04:02.843Z,52.30
2022-08-16T10:04:55.525Z,52.30
2022-08-16T10:05:55.467Z,52.20
2022-08-16T10:06:55.325Z,53.45
2022-08-16T10:07:56.105Z,51.69
2022-08-16T10:09:05.520Z,52.74
2022-08-16T10:09:56.500Z,54.11
2022-08-16T10:10:55.327Z,49.90
2022-08-16T10:11:55.400Z,51.66
2022-08-16T10:12:55.846Z,49.80
2022-08-16T10:13:55.208Z,50.49
2022-08-16T10:14:55.308Z,47.86
2022-08-16T10:15:55.969Z,50.42
2022-08-16T10:16:57.508Z,51.76
2022-08-16T10:18:01.134Z,50.68
2022-08-16T10:19:01.826Z,53.11
2022-08-16T10:19:55.302Z,50.15
2022-08-16T10:20:55.239Z,46.69
2022-08-16T10:21:56.373Z,51.07
2022-08-16T10:23:05.500Z,48.11
2022-08-16T10:23:55.150Z,49.55
2022-08-16T10:24:55.803Z,44.69
2022-08-16T10:27:18.694Z,47.08
2022-08-16T10:27:46.960Z,48.68
2022-08-16T10:28:05.902Z,49.26
2022-08-16T10:28:55.187Z,46.64
2022-08-16T10:30:00.708Z,48.01
2022-08-16T10:30:56.622Z,48.99
2022-08-16T10:31:55.081Z,47.79
2022-08-16T10:32:55.027Z,51.39
2022-08-16T10:33:55.027Z,51.46
2022-08-16T10:34:55.036Z,46.16
2022-08-16T10:35:56.767Z,46.26
2022-08-16T10:36:55.205Z,47.99
2022-08-16T10:37:55.074Z,46.92
2022-08-16T10:38:54.925Z,45.53
2022-08-16T10:39:55.754Z,45.53
2022-08-16T10:40:55.042Z,44.53
2022-08-16T10:41:55.237Z,47.14
2022-08-16T10:42:55.024Z,42.16
2022-08-16T10:43:55.025Z,43.46
2022-08-16T10:44:55.123Z,45.72
2022-08-16T10:46:00.511Z,43.30
2022-08-16T10:46:55.119Z,46.21
2022-08-16T10:48:00.779Z,44.94
2022-08-16T10:48:54.908Z,45.12
2022-08-16T10:49:54.986Z,45.87
2022-08-16T10:50:54.868Z,43.90
2022-08-16T10:52:02.904Z,41.58
2022-08-16T10:52:58.719Z,45.14
2022-08-16T10:53:54.916Z,44.01
2022-08-16T10:55:57.806Z,44.73
2022-08-16T10:56:56.841Z,45.42
2022-08-16T10:57:54.795Z,48.63
2022-08-16T10:58:54.930Z,47.33
2022-08-16T10:59:58.405Z,47.21
2022-08-16T11:00:57.579Z,46.50
2022-08-16T11:02:57.881Z,45.43
2022-08-16T11:03:57.461Z,46.00
2022-08-16T11:05:10.785Z,44.70
2022-08-16T11:06:03.379Z,46.04
2022-08-16T11:07:43.321Z,46.61
2022-08-16T11:07:55.336Z,45.90
2022-08-16T11:09:55.174Z,46.83
2022-08-16T11:11:01.565Z,44.18
2022-08-16T11:12:13.881Z,44.65
2022-08-16T11:12:54.908Z,41.06
2022-08-16T11:13:59.108Z,39.51
2022-08-16T11:15:55.806Z,40.03
2022-08-16T11:17:09.216Z,43.44
2022-08-16T11:19:04.128Z,39.47
2022-08-16T11:20:40.897Z,42.34
2022-08-16T11:20:54.651Z,45.78
2022-08-16T11:22:54.825Z,45.75
2022-08-16T11:23:57.466Z,40.68
2022-08-16T11:26:07.511Z,43.10
2022-08-16T11:27:54.579Z,42.69
2022-08-16T11:29:55.026Z,42.00
2022-08-16T11:30:55.005Z,43.47
2022-08-16T11:31:54.671Z,40.76
2022-08-16T11:32:54.514Z,38.73
2022-08-16T11:33:55.368Z,43.73
2022-08-16T11:35:10.617Z,39.14
2022-08-16T11:37:01.045Z,44.38
2022-08-16T11:38:46.775Z,40.08
2022-08-16T11:38:57.334Z,39.22
2022-08-16T11:39:55.305Z,41.19
2022-08-16T11:40:54.465Z,40.99
2022-08-16T11:41:54.603Z,42.65
2022-08-16T11:42:54.465Z,43.80
2022-08-16T11:43:54.497Z,45.56
2022-08-16T11:44:56.877Z,41.66
2022-08-16T11:45:54.688Z,41.27
2022-08-16T11:46:54.465Z,44.29
2022-08-16T11:47:54.477Z,44.68
2022-08-16T11:48:54.434Z,45.64
2022-08-16T11:49:54.434Z,43.37
2022-08-16T11:50:54.426Z,42.00
2022-08-16T11:51:54.435Z,41.63
2022-08-16T11:52:54.418Z,41.54
2022-08-16T11:53:54.587Z,41.93
2022-08-16T11:54:57.048Z,42.32
2022-08-16T11:55:54.890Z,43.49
2022-08-16T11:56:57.450Z,42.88
2022-08-16T11:57:56.406Z,44.73
2022-08-16T11:58:57.003Z,44.81
2022-08-16T11:59:54.401Z,41.28
2022-08-16T12:00:54.499Z,39.94
2022-08-16T12:01:59.069Z,45.10
2022-08-16T12:02:54.678Z,39.67
2022-08-16T12:03:54.367Z,40.08
2022-08-16T12:04:54.251Z,42.69
2022-08-16T12:05:54.465Z,42.51
2022-08-16T12:06:54.551Z,39.37
2022-08-16T12:07:54.177Z,38.49
2022-08-16T12:08:54.290Z,40.76
2022-08-16T12:09:54.248Z,41.44
2022-08-16T12:10:54.205Z,43.39
2022-08-16T12:11:54.370Z,43.29
2022-08-16T12:12:54.174Z,39.69
2022-08-16T12:13:54.277Z,40.08
2022-08-16T12:14:59.738Z,40.76
2022-08-16T12:15:54.469Z,41.71
2022-08-16T12:16:55.806Z,41.83
2022-08-16T12:17:54.438Z,40.86
2022-08-16T12:18:54.140Z,42.93
2022-08-16T12:19:54.257Z,42.22
2022-08-16T12:20:55.250Z,41.73
2022-08-16T12:21:58.511Z,39.49
2022-08-16T12:22:54.159Z,40.78
2022-08-16T12:23:54.319Z,43.71
2022-08-16T12:24:54.137Z,40.39
2022-08-16T12:25:54.055Z,44.19
2022-08-16T12:26:54.220Z,44.68
2022-08-16T12:27:54.088Z,41.73
2022-08-16T12:28:56.431Z,40.09
2022-08-16T12:29:54.186Z,38.16
2022-08-16T12:30:54.052Z,42.38
2022-08-16T12:31:59.268Z,42.30
2022-08-16T12:32:54.575Z,43.30
2022-08-16T12:33:54.363Z,42.44
2022-08-16T12:34:54.064Z,43.76
2022-08-16T12:35:54.056Z,44.58
2022-08-16T12:36:54.007Z,45.68
2022-08-16T12:37:56.598Z,44.82
2022-08-16T12:38:54.016Z,45.63
2022-08-16T12:39:54.033Z,48.40
2022-08-16T12:40:57.098Z,47.05
2022-08-16T12:41:54.134Z,47.27
2022-08-16T12:42:54.795Z,49.55
2022-08-16T12:43:56.917Z,48.25
2022-08-16T12:44:54.132Z,49.31
2022-08-16T12:45:53.919Z,48.40
2022-08-16T12:46:54.115Z,47.30
2022-08-16T12:48:09.999Z,48.03
2022-08-16T12:48:53.928Z,47.94
2022-08-16T12:49:53.925Z,49.38
2022-08-16T12:50:53.885Z,47.13
2022-08-16T12:51:58.343Z,46.52
2022-08-16T12:52:53.946Z,46.72
2022-08-16T12:53:53.815Z,45.73
2022-08-16T12:54:55.031Z,45.05
2022-08-16T12:55:53.923Z,44.70
2022-08-16T12:56:53.851Z,45.59
2022-08-16T12:57:58.232Z,45.70
2022-08-16T12:58:53.763Z,44.87
2022-08-16T12:59:53.922Z,46.44
2022-08-16T13:00:53.831Z,47.15
2022-08-16T13:01:58.034Z,46.80